Estación Meteorológica Peña el Pijo (Robertgarden) [ 09/24/17 17:48:49 CEST ]

Fecha Hora Presion(HPa) Temp (°C) Humedad % Rocio (°C) Viento ( m/s) Direccion Lluvia 1Hora(mm) Lluvia 24H(mm) LLuvia Total(mm)
2017-Sep-02 01:01:52 1012.400 17.1 82 14.0         1457.65
2017-Sep-02 02:01:34 1012.700 17.1 84 14.4         1457.65
2017-Sep-02 03:02:07 1012.800 17.2 85 14.6         1457.65
2017-Sep-02 04:02:16 1012.800 16.7 86 14.3         1457.65
2017-Sep-02 05:01:55 1012.900 16.8 87 14.6         1457.65
2017-Sep-02 06:02:19 1012.900 16.9 87 14.7         1457.65
2017-Sep-02 07:01:54 1013.200 16.2 88 14.2         1457.65
2017-Sep-02 08:01:56 1013.500 16.5 88 14.5         1457.65
2017-Sep-02 09:01:48 1013.800 17.6 89 15.8         1457.65
2017-Sep-02 10:01:47 1014.200 20.1 87 17.8         1457.65
2017-Sep-02 11:01:43 1014.500 23.1 77 18.9 1.3 S     1457.65
2017-Sep-02 12:01:40 1014.500 27.9 56 18.4         1457.65
2017-Sep-02 13:01:43 1014.300 29.2 48 17.1         1457.65
2017-Sep-02 14:01:33 1013.600 29.8 42 15.5         1457.65
2017-Sep-02 15:01:37 1013.200 30.9 40 15.8         1457.65
2017-Sep-02 16:01:52 1012.900 30.2 42 15.9         1457.65
2017-Sep-02 17:01:34 1012.600 27.9 44 14.5         1457.65
2017-Sep-02 18:01:38 1012.400 28.9 45 15.8         1457.65
2017-Sep-02 19:01:58 1012.400 26.7 51 15.7         1457.65
2017-Sep-02 20:02:06 1012.500 24.1 58 15.3         1457.65
2017-Sep-02 21:01:56 1013.200 21.5 65 14.6         1457.65
2017-Sep-02 22:01:56 1013.900 19.8 73 14.8         1457.65
2017-Sep-02 23:01:46 1014.400 18.3 77 14.2         1457.65

Temperatura Máxima:30°    Temperatura Mínima:16°
Presión Máxima:1014.500 Hpa    Presión Mínima:1012.400 Hpa


Volver